Time,TemperatureF,DewpointF,PressureIn,WindDirection,WindDirectionDegrees,WindSpeedMPH,WindSpeedGustMPH,Humidity,HourlyPrecipIn,Conditions,Clouds,dailyrainin,SoftwareType,DateUTC
2013-03-28 00:07:00,-999.0,-99.9,30.32,North,-999,-999.0,-999.0,-999,-99.99,,,0.00,weatherlink.com 1.10,2013-03-28 05:07:00,
2013-03-28 00:22:00,-999.0,-99.9,30.33,North,-999,-999.0,-999.0,-999,-99.99,,,0.00,weatherlink.com 1.10,2013-03-28 05:22:00,
2013-03-28 00:37:00,-999.0,-99.9,30.33,North,-999,-999.0,-999.0,-999,-99.99,,,0.00,weatherlink.com 1.10,2013-03-28 05:37:00,
2013-03-28 00:52:00,-999.0,-99.9,30.33,North,-999,-999.0,-999.0,-999,-99.99,,,0.00,weatherlink.com 1.10,2013-03-28 05:52:00,
2013-03-28 01:07:00,-999.0,-99.9,30.33,North,-999,-999.0,-999.0,-999,-99.99,,,0.00,weatherlink.com 1.10,2013-03-28 06:07:00,
2013-03-28 01:22:00,-999.0,-99.9,30.33,North,-999,-999.0,-999.0,-999,-99.99,,,0.00,weatherlink.com 1.10,2013-03-28 06:22:00,
2013-03-28 01:37:00,-999.0,-99.9,30.33,North,-999,-999.0,-999.0,-999,-99.99,,,0.00,weatherlink.com 1.10,2013-03-28 06:37:00,
2013-03-28 01:52:00,-999.0,-99.9,30.33,North,-999,-999.0,-999.0,-999,-99.99,,,0.00,weatherlink.com 1.10,2013-03-28 06:52:00,
2013-03-28 02:08:00,-999.0,-99.9,30.33,North,-999,-999.0,-999.0,-999,-99.99,,,0.00,weatherlink.com 1.10,2013-03-28 07:08:00,
2013-03-28 02:23:00,-999.0,-99.9,30.33,North,-999,-999.0,-999.0,-999,-99.99,,,0.00,weatherlink.com 1.10,2013-03-28 07:23:00,
2013-03-28 02:38:00,-999.0,-99.9,30.33,North,-999,-999.0,-999.0,-999,-99.99,,,0.00,weatherlink.com 1.10,2013-03-28 07:38:00,
2013-03-28 02:53:00,-999.0,-99.9,30.33,North,-999,-999.0,-999.0,-999,-99.99,,,0.00,weatherlink.com 1.10,2013-03-28 07:53:00,
2013-03-28 03:08:00,-999.0,-99.9,30.33,North,-999,-999.0,-999.0,-999,-99.99,,,0.00,weatherlink.com 1.10,2013-03-28 08:08:00,
2013-03-28 03:23:00,-999.0,-99.9,30.33,North,-999,-999.0,-999.0,-999,-99.99,,,0.00,weatherlink.com 1.10,2013-03-28 08:23:00,
2013-03-28 03:38:00,-999.0,-99.9,30.32,North,-999,-999.0,-999.0,-999,-99.99,,,0.00,weatherlink.com 1.10,2013-03-28 08:38:00,
2013-03-28 03:53:00,-999.0,-99.9,30.32,North,-999,-999.0,-999.0,-999,-99.99,,,0.00,weatherlink.com 1.10,2013-03-28 08:53:00,
2013-03-28 04:08:00,-999.0,-99.9,30.33,North,-999,-999.0,-999.0,-999,-99.99,,,0.00,weatherlink.com 1.10,2013-03-28 09:08:00,
2013-03-28 04:23:00,-999.0,-99.9,30.33,North,-999,-999.0,-999.0,-999,-99.99,,,0.00,weatherlink.com 1.10,2013-03-28 09:23:00,
2013-03-28 04:38:00,-999.0,-99.9,30.32,North,-999,-999.0,-999.0,-999,-99.99,,,0.00,weatherlink.com 1.10,2013-03-28 09:38:00,
2013-03-28 04:53:00,-999.0,-99.9,30.33,North,-999,-999.0,-999.0,-999,-99.99,,,0.00,weatherlink.com 1.10,2013-03-28 09:53:00,
2013-03-28 05:09:00,-999.0,-99.9,30.33,North,-999,-999.0,-999.0,-999,-99.99,,,0.00,weatherlink.com 1.10,2013-03-28 10:09:00,
2013-03-28 05:24:00,-999.0,-99.9,30.33,North,-999,-999.0,-999.0,-999,-99.99,,,0.00,weatherlink.com 1.10,2013-03-28 10:24:00,
2013-03-28 05:39:00,-999.0,-99.9,30.33,North,-999,-999.0,-999.0,-999,-99.99,,,0.00,weatherlink.com 1.10,2013-03-28 10:39:00,
2013-03-28 05:54:00,-999.0,-99.9,30.33,North,-999,-999.0,-999.0,-999,-99.99,,,0.00,weatherlink.com 1.10,2013-03-28 10:54:00,
2013-03-28 06:09:00,-999.0,-99.9,30.34,North,-999,-999.0,-999.0,-999,-99.99,,,0.00,weatherlink.com 1.10,2013-03-28 11:09:00,
2013-03-28 06:24:00,-999.0,-99.9,30.34,North,-999,-999.0,-999.0,-999,-99.99,,,0.00,weatherlink.com 1.10,2013-03-28 11:24:00,
2013-03-28 06:39:00,-999.0,-99.9,30.34,North,-999,-999.0,-999.0,-999,-99.99,,,0.00,weatherlink.com 1.10,2013-03-28 11:39:00,
2013-03-28 06:54:00,-999.0,-99.9,30.34,North,-999,-999.0,-999.0,-999,-99.99,,,0.00,weatherlink.com 1.10,2013-03-28 11:54:00,
2013-03-28 07:09:00,-999.0,-99.9,30.35,North,-999,-999.0,-999.0,-999,-99.99,,,0.00,weatherlink.com 1.10,2013-03-28 12:09:00,
2013-03-28 07:24:00,-999.0,-99.9,30.35,North,-999,-999.0,-999.0,-999,-99.99,,,0.00,weatherlink.com 1.10,2013-03-28 12:24:00,
2013-03-28 07:39:00,-999.0,-99.9,30.36,North,-999,-999.0,-999.0,-999,-99.99,,,0.00,weatherlink.com 1.10,2013-03-28 12:39:00,
2013-03-28 07:54:00,-999.0,-99.9,30.37,North,-999,-999.0,-999.0,-999,-99.99,,,0.00,weatherlink.com 1.10,2013-03-28 12:54:00,
2013-03-28 08:10:00,-999.0,-99.9,30.36,North,-999,-999.0,-999.0,-999,-99.99,,,0.00,weatherlink.com 1.10,2013-03-28 13:10:00,
2013-03-28 08:25:00,-999.0,-99.9,30.36,North,-999,-999.0,-999.0,-999,-99.99,,,0.00,weatherlink.com 1.10,2013-03-28 13:25:00,
2013-03-28 08:40:00,-999.0,-99.9,30.37,North,-999,-999.0,-999.0,-999,-99.99,,,0.00,weatherlink.com 1.10,2013-03-28 13:40:00,
2013-03-28 08:55:00,-999.0,-99.9,30.37,North,-999,-999.0,-999.0,-999,-99.99,,,0.00,weatherlink.com 1.10,2013-03-28 13:55:00,
2013-03-28 09:10:00,-999.0,-99.9,30.37,North,-999,-999.0,-999.0,-999,-99.99,,,0.00,weatherlink.com 1.10,2013-03-28 14:10:00,
2013-03-28 09:25:00,-999.0,-99.9,30.37,North,-999,-999.0,-999.0,-999,-99.99,,,0.00,weatherlink.com 1.10,2013-03-28 14:25:00,
2013-03-28 09:40:00,33.8,27.0,30.37,NW,304,0.0,-999.0,77,-99.99,,,0.00,weatherlink.com 1.10,2013-03-28 14:40:00,
2013-03-28 09:55:00,34.7,28.0,30.37,NW,306,0.0,-999.0,76,-99.99,,,0.00,weatherlink.com 1.10,2013-03-28 14:55:00,
2013-03-28 10:10:00,35.7,29.0,30.38,NW,306,0.0,-999.0,75,-99.99,,,0.00,weatherlink.com 1.10,2013-03-28 15:10:00,
2013-03-28 10:25:00,36.7,29.0,30.38,NW,306,0.0,-999.0,75,-99.99,,,0.00,weatherlink.com 1.10,2013-03-28 15:25:00,
2013-03-28 10:40:00,37.7,30.0,30.38,NW,306,0.0,-999.0,73,-99.99,,,0.00,weatherlink.com 1.10,2013-03-28 15:40:00,
2013-03-28 10:55:00,38.3,30.0,30.38,NW,305,0.0,-999.0,73,-99.99,,,0.00,weatherlink.com 1.10,2013-03-28 15:55:00,
2013-03-28 11:11:00,39.3,30.0,30.38,West,273,0.0,-999.0,70,-99.99,,,0.00,weatherlink.com 1.10,2013-03-28 16:11:00,
2013-03-28 11:41:00,41.1,26.0,30.37,West,280,0.0,-999.0,56,-99.99,,,0.00,weatherlink.com 1.10,2013-03-28 16:41:00,
2013-03-28 11:56:00,41.6,26.0,30.37,West,280,0.0,-999.0,54,-99.99,,,0.00,weatherlink.com 1.10,2013-03-28 16:56:00,
2013-03-28 12:11:00,42.0,26.0,30.37,WSW,254,0.0,-999.0,54,-99.99,,,0.00,weatherlink.com 1.10,2013-03-28 17:11:00,
2013-03-28 12:26:00,42.3,27.0,30.37,WSW,244,0.0,-999.0,56,-99.99,,,0.00,weatherlink.com 1.10,2013-03-28 17:26:00,
2013-03-28 12:41:00,42.5,26.0,30.37,WNW,294,0.0,-999.0,52,-99.99,,,0.00,weatherlink.com 1.10,2013-03-28 17:41:00,
2013-03-28 12:56:00,43.0,25.0,30.36,WSW,257,0.0,-999.0,50,-99.99,,,0.00,weatherlink.com 1.10,2013-03-28 17:56:00,
2013-03-28 13:11:00,42.9,26.0,30.36,West,277,0.0,-999.0,51,-99.99,,,0.00,weatherlink.com 1.10,2013-03-28 18:11:00,
2013-03-28 13:26:00,43.2,25.0,30.36,West,279,0.0,-999.0,49,-99.99,,,0.00,weatherlink.com 1.10,2013-03-28 18:26:00,
2013-03-28 15:11:00,44.6,27.0,30.32,WNW,296,1.0,-999.0,51,-99.99,,,0.00,weatherlink.com 1.10,2013-03-28 20:11:00,
2013-03-28 15:26:00,44.6,28.0,30.32,West,277,3.0,-999.0,52,-99.99,,,0.00,weatherlink.com 1.10,2013-03-28 20:26:00,
2013-03-28 15:56:00,45.0,28.0,30.31,WSW,256,5.0,-999.0,52,-99.99,,,0.00,weatherlink.com 1.10,2013-03-28 20:56:00,
2013-03-28 16:26:00,45.0,28.0,30.30,WNW,286,6.0,-999.0,51,-99.99,,,0.00,weatherlink.com 1.10,2013-03-28 21:26:00,
2013-03-28 16:56:00,45.2,29.0,30.30,WSW,253,0.0,-999.0,53,-99.99,,,0.00,weatherlink.com 1.10,2013-03-28 21:56:00,
2013-03-28 17:11:00,45.4,29.0,30.30,SW,234,0.0,-999.0,52,-99.99,,,0.00,weatherlink.com 1.10,2013-03-28 22:11:00,
2013-03-28 17:26:00,45.4,30.0,30.30,SSW,209,4.0,-999.0,56,-99.99,,,0.00,weatherlink.com 1.10,2013-03-28 22:26:00,
2013-03-28 17:41:00,45.4,29.0,30.30,SW,217,0.0,-999.0,54,-99.99,,,0.00,weatherlink.com 1.10,2013-03-28 22:41:00,
2013-03-28 17:56:00,44.9,29.0,30.29,WSW,239,0.0,-999.0,54,-99.99,,,0.00,weatherlink.com 1.10,2013-03-28 22:56:00,
2013-03-28 18:11:00,44.6,30.0,30.30,SW,225,0.0,-999.0,57,-99.99,,,0.00,weatherlink.com 1.10,2013-03-28 23:11:00,
2013-03-28 18:26:00,44.2,30.0,30.29,SW,217,0.0,-999.0,59,-99.99,,,0.00,weatherlink.com 1.10,2013-03-28 23:26:00,
2013-03-28 18:41:00,43.8,31.0,30.29,SW,217,0.0,-999.0,62,-99.99,,,0.00,weatherlink.com 1.10,2013-03-28 23:41:00,
2013-03-28 19:12:00,43.0,32.0,30.30,SW,217,0.0,-999.0,65,-99.99,,,0.00,weatherlink.com 1.10,2013-03-29 00:12:00,
2013-03-28 19:27:00,42.4,32.0,30.30,SW,217,0.0,-999.0,66,-99.99,,,0.00,weatherlink.com 1.10,2013-03-29 00:27:00,
2013-03-28 19:57:00,41.4,32.0,30.30,SW,217,0.0,-999.0,68,-99.99,,,0.00,weatherlink.com 1.10,2013-03-29 00:57:00,
2013-03-28 20:12:00,41.0,32.0,30.30,SW,217,0.0,-999.0,69,-99.99,,,0.00,weatherlink.com 1.10,2013-03-29 01:12:00,
2013-03-28 20:27:00,-999.0,-99.9,30.30,North,-999,-999.0,-999.0,-999,-99.99,,,0.00,weatherlink.com 1.10,2013-03-29 01:27:00,
2013-03-28 20:42:00,-999.0,-99.9,30.30,North,-999,-999.0,-999.0,-999,-99.99,,,0.00,weatherlink.com 1.10,2013-03-29 01:42:00,
2013-03-28 20:57:00,-999.0,-99.9,30.31,North,-999,-999.0,-999.0,-999,-99.99,,,0.00,weatherlink.com 1.10,2013-03-29 01:57:00,
2013-03-28 21:12:00,-999.0,-99.9,30.31,North,-999,-999.0,-999.0,-999,-99.99,,,0.00,weatherlink.com 1.10,2013-03-29 02:12:00,
2013-03-28 21:27:00,-999.0,-99.9,30.31,North,-999,-999.0,-999.0,-999,-99.99,,,0.00,weatherlink.com 1.10,2013-03-29 02:27:00,
2013-03-28 21:42:00,-999.0,-99.9,30.31,North,-999,-999.0,-999.0,-999,-99.99,,,0.00,weatherlink.com 1.10,2013-03-29 02:42:00,
2013-03-28 21:57:00,-999.0,-99.9,30.31,North,-999,-999.0,-999.0,-999,-99.99,,,0.00,weatherlink.com 1.10,2013-03-29 02:57:00,
2013-03-28 22:12:00,-999.0,-99.9,30.31,North,-999,-999.0,-999.0,-999,-99.99,,,0.00,weatherlink.com 1.10,2013-03-29 03:12:00,
2013-03-28 22:27:00,-999.0,-99.9,30.31,North,-999,-999.0,-999.0,-999,-99.99,,,0.00,weatherlink.com 1.10,2013-03-29 03:27:00,
2013-03-28 22:42:00,-999.0,-99.9,30.31,North,-999,-999.0,-999.0,-999,-99.99,,,0.00,weatherlink.com 1.10,2013-03-29 03:42:00,
2013-03-28 22:57:00,-999.0,-99.9,30.31,North,-999,-999.0,-999.0,-999,-99.99,,,0.00,weatherlink.com 1.10,2013-03-29 03:57:00,
2013-03-28 23:13:00,-999.0,-99.9,30.31,North,-999,-999.0,-999.0,-999,-99.99,,,0.00,weatherlink.com 1.10,2013-03-29 04:13:00,
2013-03-28 23:28:00,-999.0,-99.9,30.31,North,-999,-999.0,-999.0,-999,-99.99,,,0.00,weatherlink.com 1.10,2013-03-29 04:28:00,
2013-03-28 23:43:00,-999.0,-99.9,30.31,North,-999,-999.0,-999.0,-999,-99.99,,,0.00,weatherlink.com 1.10,2013-03-29 04:43:00,
2013-03-28 23:58:00,-999.0,-99.9,30.31,North,-999,-999.0,-999.0,-999,-99.99,,,0.00,weatherlink.com 1.10,2013-03-29 04:58:00,